Time;durP1;ratioP1;P1;durP2;ratioP2;P2;SDS_P1;SDS_P2;PMS_P1;PMS_P2;Temp;Humidity;BMP_temperature;BMP_pressure;BME280_temperature;BME280_humidity;BME280_pressure;Samples;Min_cycle;Max_cycle;Signal;HPM_P1;HPM_P2
2021/11/19 00:00:58;;;;;;;18.57;13.37;;;;;22.60;101728.00;;;;2049059;28;20753;-67
2021/11/19 00:02:00;;;;;;;16.50;12.60;;;;;22.60;101728.00;;;;2048553;28;20252;-67
2021/11/19 00:03:00;;;;;;;14.35;12.15;;;;;22.60;101727.00;;;;2047869;28;20573;-67
2021/11/19 00:04:01;;;;;;;16.60;13.00;;;;;22.60;101727.00;;;;2047910;28;20291;-67
2021/11/19 00:05:01;;;;;;;16.10;11.87;;;;;22.60;101727.00;;;;2047171;28;20220;-67
2021/11/19 00:06:01;;;;;;;12.90;11.20;;;;;22.40;101723.00;;;;2048122;28;20314;-67
2021/11/19 00:07:03;;;;;;;13.90;12.03;;;;;22.60;101725.00;;;;2047997;28;20271;-67
2021/11/19 00:08:04;;;;;;;13.30;11.90;;;;;22.60;101724.00;;;;2047368;28;20283;-67
2021/11/19 00:09:05;;;;;;;14.10;11.25;;;;;22.60;101725.00;;;;2047204;28;20589;-67
2021/11/19 00:10:07;;;;;;;12.85;11.52;;;;;22.60;101724.00;;;;2047900;28;20601;-67
2021/11/19 00:11:10;;;;;;;14.02;11.55;;;;;22.60;101726.00;;;;2045367;28;20217;-67
2021/11/19 00:12:10;;;;;;;11.23;10.02;;;;;22.60;101722.00;;;;2047768;28;20212;-67
2021/11/19 00:13:11;;;;;;;12.40;11.07;;;;;22.60;101726.00;;;;2047219;28;20262;-67
2021/11/19 00:14:11;;;;;;;12.60;11.20;;;;;22.60;101729.00;;;;2043488;28;20208;-67
2021/11/19 00:15:11;;;;;;;14.67;11.70;;;;;22.60;101723.00;;;;2054355;28;20211;-67
2021/11/19 00:16:12;;;;;;;11.40;10.23;;;;;22.50;101723.00;;;;2047699;28;20671;-67
2021/11/19 00:17:12;;;;;;;12.93;11.43;;;;;22.50;101726.00;;;;2047359;28;20612;-67
2021/11/19 00:18:13;;;;;;;13.73;10.87;;;;;22.60;101722.00;;;;2047509;28;20212;-68
2021/11/19 00:19:16;;;;;;;14.00;11.80;;;;;22.50;101730.00;;;;2047730;28;20275;-67
2021/11/19 00:20:18;;;;;;;11.77;10.65;;;;;22.60;101716.00;;;;2047863;28;20722;-67
2021/11/19 00:21:18;;;;;;;12.63;10.88;;;;;22.60;101716.00;;;;2047783;28;20212;-67
2021/11/19 00:22:19;;;;;;;13.17;11.17;;;;;22.60;101713.00;;;;2047841;28;20217;-67
2021/11/19 00:23:19;;;;;;;13.70;10.47;;;;;22.50;101714.00;;;;2047962;28;20205;-67
2021/11/19 00:24:19;;;;;;;11.23;10.10;;;;;22.50;101719.00;;;;2047640;28;20244;-67
2021/11/19 00:25:20;;;;;;;11.53;9.60;;;;;22.50;101709.00;;;;2046942;28;20213;-67
2021/11/19 00:26:21;;;;;;;12.20;10.97;;;;;22.50;101702.00;;;;2047605;28;20251;-67
2021/11/19 00:27:21;;;;;;;11.33;10.13;;;;;22.50;101718.00;;;;2046367;28;20216;-67
2021/11/19 00:28:22;;;;;;;11.93;9.97;;;;;22.50;101712.00;;;;2047847;28;20463;-67
2021/11/19 00:29:22;;;;;;;11.80;10.70;;;;;22.50;101710.00;;;;2047644;28;20267;-67
2021/11/19 00:30:23;;;;;;;11.30;10.10;;;;;22.50;101705.00;;;;2049396;28;20709;-67
2021/11/19 00:31:24;;;;;;;13.60;10.07;;;;;22.50;101699.00;;;;2049137;28;20223;-67
2021/11/19 00:32:24;;;;;;;12.27;9.90;;;;;22.50;101700.00;;;;2048494;28;20459;-67
2021/11/19 00:33:24;;;;;;;10.63;9.63;;;;;22.50;101701.00;;;;2045646;28;21009;-67
2021/11/19 00:34:25;;;;;;;11.53;10.07;;;;;22.50;101711.00;;;;2054037;28;20709;-67
2021/11/19 00:35:25;;;;;;;11.53;10.43;;;;;22.40;101702.00;;;;2053592;28;20302;-67
2021/11/19 00:36:27;;;;;;;12.27;11.00;;;;;22.40;101707.00;;;;2047702;28;20212;-67
2021/11/19 00:37:27;;;;;;;11.18;10.07;;;;;22.50;101708.00;;;;2047748;28;20208;-67
2021/11/19 00:38:28;;;;;;;12.30;10.30;;;;;22.40;101709.00;;;;2047607;28;20298;-67
2021/11/19 00:39:28;;;;;;;12.80;10.10;;;;;22.40;101703.00;;;;2047563;28;20699;-67
2021/11/19 00:40:38;;;;;;;12.90;10.40;;;;;22.40;101708.00;;;;2046933;28;20212;-67
2021/11/19 00:41:39;;;;;;;11.25;10.05;;;;;22.40;101702.00;;;;2044523;28;20216;-67
2021/11/19 00:42:39;;;;;;;12.47;10.67;;;;;22.40;101706.00;;;;2047590;28;20702;-67
2021/11/19 00:43:40;;;;;;;12.33;11.10;;;;;22.50;101697.00;;;;2047717;28;20223;-67
2021/11/19 00:44:40;;;;;;;11.43;10.23;;;;;22.40;101709.00;;;;2046820;28;20284;-67
2021/11/19 00:45:40;;;;;;;11.83;10.10;;;;;22.40;101709.00;;;;2047338;28;20219;-67
2021/11/19 00:46:41;;;;;;;10.40;9.43;;;;;22.40;101708.00;;;;2047569;28;20736;-67
2021/11/19 00:47:42;;;;;;;11.10;9.47;;;;;22.40;101705.00;;;;2047781;28;20307;-67
2021/11/19 00:48:43;;;;;;;10.70;9.53;;;;;22.40;101710.00;;;;2055083;28;20212;-67
2021/11/19 00:49:43;;;;;;;11.20;9.82;;;;;22.30;101702.00;;;;2054953;28;20274;-67
2021/11/19 00:50:47;;;;;;;10.73;9.63;;;;;22.30;101708.00;;;;2047558;28;20321;-67
2021/11/19 00:51:50;;;;;;;10.35;9.25;;;;;22.30;101710.00;;;;2046665;28;20280;-67
2021/11/19 00:52:50;;;;;;;10.73;9.63;;;;;22.40;101706.00;;;;2042997;28;20308;-67
2021/11/19 00:53:53;;;;;;;9.70;8.80;;;;;22.40;101714.00;;;;2043254;28;20221;-67
2021/11/19 00:54:53;;;;;;;11.32;9.55;;;;;22.40;101712.00;;;;2046130;28;20320;-67
2021/11/19 00:55:54;;;;;;;10.37;9.27;;;;;22.40;101706.00;;;;2047520;28;20224;-67
2021/11/19 00:57:01;;;;;;;10.77;9.77;;;;;22.30;101713.00;;;;2047391;28;20646;-67
2021/11/19 00:58:01;;;;;;;12.77;9.75;;;;;22.30;101723.00;;;;2047508;28;20216;-67
2021/11/19 00:59:02;;;;;;;10.90;9.90;;;;;22.40;101710.00;;;;2040862;28;20624;-67
2021/11/19 01:00:07;;;;;;;10.60;9.60;;;;;22.30;101713.00;;;;2043354;28;20733;-67
2021/11/19 01:01:10;;;;;;;10.68;9.55;;;;;22.30;101709.00;;;;2049359;28;20208;-67
2021/11/19 01:02:18;;;;;;;11.27;9.30;;;;;22.30;101724.00;;;;2055176;28;20215;-67
2021/11/19 01:03:18;;;;;;;10.13;9.13;;;;;22.30;101726.00;;;;2050982;28;20223;-67
2021/11/19 01:04:19;;;;;;;10.07;9.07;;;;;22.30;101716.00;;;;2050650;28;20586;-67
2021/11/19 01:05:19;;;;;;;10.10;9.10;;;;;22.30;101728.00;;;;2045971;28;20224;-67
2021/11/19 01:06:20;;;;;;;11.40;9.00;;;;;22.30;101728.00;;;;2047245;28;20227;-67
2021/11/19 01:07:21;;;;;;;9.90;9.00;;;;;22.30;101730.00;;;;2041180;28;20223;-67
2021/11/19 01:08:22;;;;;;;9.60;8.65;;;;;22.30;101732.00;;;;2054244;28;20723;-67
2021/11/19 01:09:25;;;;;;;10.07;9.18;;;;;22.20;101726.00;;;;2046378;28;20781;-67
2021/11/19 01:10:29;;;;;;;11.07;9.88;;;;;22.30;101727.00;;;;2039215;28;20228;-67
2021/11/19 01:11:30;;;;;;;9.70;8.60;;;;;22.30;101726.00;;;;2038194;28;20593;-67
2021/11/19 01:12:31;;;;;;;10.13;9.13;;;;;22.30;101724.00;;;;2047032;28;20231;-67
2021/11/19 01:13:32;;;;;;;10.82;9.60;;;;;22.30;101724.00;;;;2054445;28;20211;-67
2021/11/19 01:14:37;;;;;;;8.98;8.18;;;;;22.30;101724.00;;;;2053558;28;20294;-67
2021/11/19 01:15:38;;;;;;;10.00;9.00;;;;;22.30;101728.00;;;;2047119;28;20209;-67
2021/11/19 01:16:41;;;;;;;10.32;8.75;;;;;22.30;101723.00;;;;2047156;28;20207;-67
2021/11/19 01:17:53;;;;;;;8.85;7.95;;;;;22.20;101719.00;;;;2047331;28;20244;-67
2021/11/19 01:18:56;;;;;;;8.88;8.05;;;;;22.20;101726.00;;;;2054941;28;20222;-67
2021/11/19 01:20:09;;;;;;;9.55;8.63;;;;;22.20;101738.00;;;;2046431;28;20216;-67
2021/11/19 01:21:25;;;;;;;9.40;8.50;;;;;22.30;101725.00;;;;2048691;28;20572;-67
2021/11/19 01:22:28;;;;;;;8.95;8.05;;;;;22.30;101737.00;;;;2052504;28;20708;-67
2021/11/19 01:23:29;;;;;;;10.77;8.75;;;;;22.20;101733.00;;;;2055207;28;20299;-67
2021/11/19 01:24:29;;;;;;;9.50;8.60;;;;;22.20;101741.00;;;;2054408;28;20641;-67
2021/11/19 01:25:31;;;;;;;9.63;8.63;;;;;22.20;101736.00;;;;2055013;28;20295;-67
2021/11/19 01:26:37;;;;;;;9.95;8.43;;;;;22.20;101736.00;;;;2046680;28;20231;-67
2021/11/19 01:27:37;;;;;;;9.15;7.53;;;;;22.20;101734.00;;;;2047432;28;20220;-67
2021/11/19 01:28:38;;;;;;;11.60;8.40;;;;;22.20;101732.00;;;;2055197;28;20196;-67
2021/11/19 01:29:38;;;;;;;10.03;8.90;;;;;22.20;101728.00;;;;2054903;28;20211;-67
2021/11/19 01:30:43;;;;;;;8.83;8.03;;;;;22.20;101733.00;;;;2054965;28;20196;-67
2021/11/19 01:31:47;;;;;;;9.77;7.85;;;;;22.20;101729.00;;;;2057706;28;20226;-67
2021/11/19 01:32:48;;;;;;;11.05;8.20;;;;;22.20;101729.00;;;;2057086;28;20235;-67
2021/11/19 01:33:48;;;;;;;8.87;7.63;;;;;22.20;101728.00;;;;2054965;28;20230;-67
2021/11/19 01:34:49;;;;;;;9.63;8.60;;;;;22.20;101724.00;;;;2054453;28;20227;-67
2021/11/19 01:35:49;;;;;;;8.57;7.77;;;;;22.10;101721.00;;;;2055186;28;20339;-67
2021/11/19 01:36:49;;;;;;;8.67;7.77;;;;;22.10;101725.00;;;;2054646;28;20302;-67
2021/11/19 01:37:50;;;;;;;9.00;8.00;;;;;22.20;101723.00;;;;2055166;28;20733;-67
2021/11/19 01:38:50;;;;;;;9.50;8.10;;;;;22.10;101729.00;;;;2055211;28;20633;-66
2021/11/19 01:39:51;;;;;;;8.10;7.30;;;;;22.10;101728.00;;;;2046412;28;20266;-67
2021/11/19 01:40:55;;;;;;;10.93;7.93;;;;;22.10;101730.00;;;;2046700;28;20266;-67
2021/11/19 01:42:08;;;;;;;9.20;8.30;;;;;22.20;101732.00;;;;2054901;28;20265;-68
2021/11/19 01:43:10;;;;;;;9.38;8.43;;;;;22.10;101735.00;;;;2051711;28;20266;-67
2021/11/19 01:44:17;;;;;;;9.25;8.35;;;;;22.10;101734.00;;;;2054877;28;20346;-67
2021/11/19 01:45:20;;;;;;;9.30;7.90;;;;;22.10;101741.00;;;;2054364;28;20219;-67
2021/11/19 01:46:22;;;;;;;10.13;8.75;;;;;22.10;101734.00;;;;2054655;28;20224;-67
2021/11/19 01:47:23;;;;;;;9.43;8.43;;;;;22.10;101739.00;;;;2055228;28;20227;-67
2021/11/19 01:48:25;;;;;;;9.30;8.20;;;;;22.10;101740.00;;;;2055060;28;20227;-67
2021/11/19 01:49:27;;;;;;;9.77;8.77;;;;;22.10;101745.00;;;;2054528;28;20212;-68
2021/11/19 01:50:48;;;;;;;9.25;8.20;;;;;22.10;101745.00;;;;2054928;28;20239;-67
2021/11/19 01:52:00;;;;;;;8.70;7.80;;;;;22.10;101742.00;;;;2055221;28;20215;-67
2021/11/19 01:53:24;;;;;;;7.85;7.05;;;;;22.10;101742.00;;;;2042251;28;20268;-67
2021/11/19 01:54:28;;;;;;;9.55;8.55;;;;;22.10;101747.00;;;;2031627;29;20216;-67
2021/11/19 01:55:32;;;;;;;9.60;8.60;;;;;22.10;101748.00;;;;2040192;28;20750;-67
2021/11/19 01:56:36;;;;;;;9.35;8.45;;;;;22.10;101743.00;;;;2034966;29;20615;-67
2021/11/19 01:57:51;;;;;;;8.63;7.82;;;;;22.10;101742.00;;;;2028635;29;20724;-67
2021/11/19 01:58:57;;;;;;;9.77;7.38;;;;;22.10;101746.00;;;;2048309;28;20227;-67
2021/11/19 02:00:08;;;;;;;9.57;8.55;;;;;22.10;101747.00;;;;2054735;28;20223;-67
2021/11/19 02:01:15;;;;;;;8.27;7.47;;;;;22.10;101743.00;;;;2054864;28;20588;-67
2021/11/19 02:02:18;;;;;;;8.35;7.30;;;;;22.10;101748.00;;;;2056527;28;20245;-67
2021/11/19 02:03:20;;;;;;;9.35;8.32;;;;;22.10;101740.00;;;;2056351;28;20222;-67
2021/11/19 02:04:33;;;;;;;8.25;7.43;;;;;22.00;101742.00;;;;2055034;28;20211;-67
2021/11/19 02:06:01;;;;;;;9.23;8.23;;;;;22.10;101744.00;;;;2053797;28;20223;-67
2021/11/19 02:07:07;;;;;;;9.07;7.80;;;;;22.10;101752.00;;;;2045683;28;20228;-67
2021/11/19 02:08:14;;;;;;;9.57;8.57;;;;;22.10;101750.00;;;;2043592;28;20215;-67
2021/11/19 02:09:38;;;;;;;10.23;9.23;;;;;22.00;101748.00;;;;2038649;29;20217;-67
2021/11/19 02:11:00;;;;;;;8.82;7.60;;;;;22.10;101751.00;;;;2047518;28;20211;-67
2021/11/19 02:12:08;;;;;;;9.10;8.20;;;;;22.00;101752.00;;;;2051887;28;20215;-68
2021/11/19 02:13:17;;;;;;;8.50;7.68;;;;;22.00;101743.00;;;;2052965;28;20217;-67
2021/11/19 02:14:47;;;;;;;8.75;7.85;;;;;22.00;101744.00;;;;2046509;28;20208;-67
2021/11/19 02:15:52;;;;;;;10.77;8.57;;;;;22.00;101748.00;;;;2033211;29;20754;-67
2021/11/19 02:16:56;;;;;;;9.93;8.23;;;;;22.00;101757.00;;;;2038716;29;20220;-67
2021/11/19 02:18:00;;;;;;;8.85;7.95;;;;;22.00;101742.00;;;;2046909;28;20253;-67
2021/11/19 02:19:09;;;;;;;8.98;8.05;;;;;22.00;101746.00;;;;2042604;29;20208;-67
2021/11/19 02:20:12;;;;;;;8.50;7.60;;;;;22.00;101759.00;;;;2030596;29;20265;-67
2021/11/19 02:21:22;;;;;;;10.30;8.60;;;;;22.00;101750.00;;;;2038811;29;20213;-67
2021/11/19 02:22:24;;;;;;;10.60;8.60;;;;;22.00;101745.00;;;;2038579;29;20223;-67
2021/11/19 02:23:42;;;;;;;9.60;8.70;;;;;22.00;101745.00;;;;2042268;28;20216;-67
2021/11/19 02:24:45;;;;;;;13.88;9.35;;;;;22.00;101740.00;;;;2053788;28;20211;-67
2021/11/19 02:25:54;;;;;;;9.90;8.90;;;;;22.00;101737.00;;;;2051535;28;20251;-67
2021/11/19 02:27:08;;;;;;;9.25;8.13;;;;;22.00;101737.00;;;;2053912;28;20804;-67
2021/11/19 02:28:13;;;;;;;9.18;8.25;;;;;22.00;101735.00;;;;2043481;28;20702;-67
2021/11/19 02:29:14;;;;;;;9.50;8.60;;;;;22.00;101736.00;;;;2046874;28;20220;-66
2021/11/19 02:30:17;;;;;;;9.80;8.80;;;;;22.00;101734.00;;;;2050477;28;20235;-67
2021/11/19 02:31:32;;;;;;;10.18;9.10;;;;;22.00;101733.00;;;;2044430;28;20266;-67
2021/11/19 02:32:35;;;;;;;9.32;8.43;;;;;22.00;101725.00;;;;2050987;28;20235;-67
2021/11/19 02:33:38;;;;;;;9.25;8.27;;;;;22.00;101729.00;;;;2043040;28;20215;-67
2021/11/19 02:34:38;;;;;;;9.38;8.48;;;;;22.00;101726.00;;;;2046354;29;20226;-67
2021/11/19 02:36:01;;;;;;;10.17;8.83;;;;;22.00;101730.00;;;;2046732;28;20235;-67
2021/11/19 02:37:11;;;;;;;10.35;8.70;;;;;21.90;101724.00;;;;2052051;28;20769;-67
2021/11/19 02:38:12;;;;;;;9.35;8.23;;;;;22.00;101723.00;;;;2054452;28;20216;-67
2021/11/19 02:39:18;;;;;;;9.13;8.23;;;;;21.90;101714.00;;;;2054346;28;20335;-67
2021/11/19 02:40:23;;;;;;;10.18;8.60;;;;;21.90;101721.00;;;;2054960;28;20214;-67
2021/11/19 02:41:25;;;;;;;8.98;8.07;;;;;22.00;101722.00;;;;2054976;28;20219;-67
2021/11/19 02:42:32;;;;;;;8.95;8.00;;;;;22.00;101724.00;;;;2051513;28;20271;-67
2021/11/19 02:43:44;;;;;;;8.95;8.05;;;;;22.00;101721.00;;;;2054619;28;20215;-67
2021/11/19 02:44:44;;;;;;;8.68;7.68;;;;;21.90;101720.00;;;;2050696;28;20208;-67
2021/11/19 02:45:47;;;;;;;10.50;8.90;;;;;21.90;101720.00;;;;2045745;28;20307;-67
2021/11/19 02:46:54;;;;;;;13.65;9.55;;;;;21.90;101725.00;;;;2046104;28;20262;-67
2021/11/19 02:47:54;;;;;;;8.20;7.40;;;;;21.90;101724.00;;;;2054893;28;20216;-67
2021/11/19 02:48:55;;;;;;;10.20;8.20;;;;;21.90;101721.00;;;;2055701;28;20219;-67
2021/11/19 02:49:57;;;;;;;9.27;8.37;;;;;21.90;101715.00;;;;2055878;28;20910;-67
2021/11/19 02:50:58;;;;;;;9.13;8.32;;;;;21.90;101717.00;;;;2056291;28;20569;-67
2021/11/19 02:51:59;;;;;;;9.18;8.20;;;;;21.90;101720.00;;;;2056449;28;20636;-67
2021/11/19 02:52:59;;;;;;;9.57;8.10;;;;;21.90;101720.00;;;;2055875;28;20216;-67
2021/11/19 02:54:00;;;;;;;9.67;8.77;;;;;21.90;101714.00;;;;2055857;28;20219;-67
2021/11/19 02:55:01;;;;;;;9.30;8.30;;;;;21.90;101721.00;;;;2055512;28;20562;-67
2021/11/19 02:56:01;;;;;;;10.38;9.38;;;;;21.90;101726.00;;;;2056501;28;20216;-67
2021/11/19 02:57:02;;;;;;;9.07;8.17;;;;;21.90;101726.00;;;;2056410;28;20215;-67
2021/11/19 02:58:04;;;;;;;8.93;8.02;;;;;21.90;101725.00;;;;2056263;28;20708;-66
2021/11/19 02:59:05;;;;;;;9.65;8.63;;;;;21.90;101727.00;;;;2051697;28;20211;-67
2021/11/19 03:00:12;;;;;;;8.90;8.10;;;;;21.90;101725.00;;;;2056225;28;20231;-67
2021/11/19 03:01:29;;;;;;;9.07;8.15;;;;;21.90;101713.00;;;;2057879;28;20474;-67
2021/11/19 03:02:30;;;;;;;9.60;8.65;;;;;21.90;101720.00;;;;2054876;28;20213;-67
2021/11/19 03:03:31;;;;;;;8.70;7.90;;;;;21.90;101725.00;;;;2047045;28;20224;-67
2021/11/19 03:04:53;;;;;;;9.70;8.20;;;;;21.90;101725.00;;;;2046791;28;20595;-67
2021/11/19 03:05:54;;;;;;;9.48;8.48;;;;;21.90;101719.00;;;;2054262;28;20934;-67
2021/11/19 03:06:55;;;;;;;10.13;8.30;;;;;21.90;101717.00;;;;2055873;28;20224;-67
2021/11/19 03:07:56;;;;;;;9.48;8.48;;;;;21.90;101719.00;;;;2056269;28;20227;-67
2021/11/19 03:08:56;;;;;;;9.17;8.20;;;;;21.90;101707.00;;;;2056213;28;20388;-67
2021/11/19 03:10:02;;;;;;;8.83;7.90;;;;;21.90;101714.00;;;;2056170;28;20295;-67
2021/11/19 03:11:03;;;;;;;8.02;7.22;;;;;21.90;101706.00;;;;2056201;28;20215;-67
2021/11/19 03:12:03;;;;;;;8.70;7.80;;;;;21.80;101716.00;;;;2056257;28;20265;-67
2021/11/19 03:13:05;;;;;;;9.23;8.23;;;;;21.80;101706.00;;;;2056353;28;20235;-67
2021/11/19 03:14:06;;;;;;;8.50;7.70;;;;;21.80;101715.00;;;;2055780;28;20459;-67
2021/11/19 03:15:12;;;;;;;8.70;7.83;;;;;21.80;101711.00;;;;2046463;28;20629;-67
2021/11/19 03:16:12;;;;;;;8.77;7.88;;;;;21.80;101713.00;;;;2044683;28;20476;-67
2021/11/19 03:17:13;;;;;;;8.93;8.00;;;;;21.90;101714.00;;;;2043736;28;20303;-66
2021/11/19 03:18:14;;;;;;;8.50;7.70;;;;;21.90;101720.00;;;;2036089;29;20224;-67
2021/11/19 03:19:14;;;;;;;8.83;7.93;;;;;21.80;101710.00;;;;2052656;28;20451;-67
2021/11/19 03:20:16;;;;;;;8.40;7.50;;;;;21.80;101704.00;;;;2040659;29;20217;-67
2021/11/19 03:21:17;;;;;;;9.15;8.25;;;;;21.80;101707.00;;;;2043322;28;20780;-67
2021/11/19 03:22:20;;;;;;;9.00;8.10;;;;;21.80;101710.00;;;;2044977;28;20212;-67
2021/11/19 03:23:21;;;;;;;9.52;8.63;;;;;21.80;101705.00;;;;2048337;28;20212;-65
2021/11/19 03:24:22;;;;;;;8.83;7.97;;;;;21.80;101700.00;;;;2048019;28;20299;-65
2021/11/19 03:25:27;;;;;;;9.83;8.27;;;;;21.80;101700.00;;;;2047548;28;20721;-65
2021/11/19 03:26:28;;;;;;;9.05;8.00;;;;;21.80;101695.00;;;;2041822;28;20482;-65
2021/11/19 03:27:29;;;;;;;9.87;8.30;;;;;21.80;101698.00;;;;2047182;28;20303;-65
2021/11/19 03:28:29;;;;;;;8.40;7.60;;;;;21.80;101701.00;;;;2048978;28;20459;-65
2021/11/19 03:29:30;;;;;;;8.90;7.83;;;;;21.80;101703.00;;;;2048273;28;20212;-65
2021/11/19 03:30:30;;;;;;;8.80;7.90;;;;;21.80;101707.00;;;;2058722;28;20214;-65
2021/11/19 03:31:31;;;;;;;8.87;8.00;;;;;21.80;101699.00;;;;2050229;28;20219;-65
2021/11/19 03:32:31;;;;;;;9.30;8.40;;;;;21.80;101703.00;;;;2049607;28;20678;-65
2021/11/19 03:33:35;;;;;;;9.03;8.23;;;;;21.80;101700.00;;;;2047958;28;20240;-65
2021/11/19 03:34:35;;;;;;;8.05;7.25;;;;;21.80;101695.00;;;;2047412;28;20208;-65
2021/11/19 03:35:35;;;;;;;8.33;7.43;;;;;21.80;101711.00;;;;2047761;28;20745;-65
2021/11/19 03:36:37;;;;;;;9.87;7.83;;;;;21.80;101706.00;;;;2048259;28;20216;-65
2021/11/19 03:37:38;;;;;;;8.80;7.90;;;;;21.80;101707.00;;;;2047343;28;20220;-65
2021/11/19 03:38:41;;;;;;;9.37;8.40;;;;;21.80;101715.00;;;;2048147;28;20247;-66
2021/11/19 03:39:41;;;;;;;8.85;7.95;;;;;21.80;101720.00;;;;2046741;28;20208;-66
2021/11/19 03:40:43;;;;;;;9.03;8.13;;;;;21.80;101718.00;;;;2047491;28;20299;-66
2021/11/19 03:41:44;;;;;;;8.40;7.68;;;;;21.80;101714.00;;;;2048103;28;20259;-66
2021/11/19 03:42:45;;;;;;;8.60;7.82;;;;;21.80;101709.00;;;;2047379;28;20212;-66
2021/11/19 03:43:55;;;;;;;8.27;7.47;;;;;21.80;101712.00;;;;2047401;28;20710;-66
2021/11/19 03:44:59;;;;;;;9.18;8.23;;;;;21.70;101712.00;;;;2043569;28;20252;-66
2021/11/19 03:46:02;;;;;;;9.25;8.23;;;;;21.80;101708.00;;;;2047963;28;20687;-66
2021/11/19 03:47:09;;;;;;;9.07;8.18;;;;;21.70;101712.00;;;;2048110;28;20984;-66
2021/11/19 03:48:09;;;;;;;8.25;7.30;;;;;21.80;101715.00;;;;2051560;28;20585;-65
2021/11/19 03:49:10;;;;;;;8.40;7.70;;;;;21.70;101713.00;;;;2055461;28;20222;-66
2021/11/19 03:50:14;;;;;;;8.80;8.00;;;;;21.80;101717.00;;;;2047552;28;20670;-66
2021/11/19 03:51:28;;;;;;;9.00;8.10;;;;;21.70;101711.00;;;;2047191;28;20212;-66
2021/11/19 03:52:31;;;;;;;7.97;7.18;;;;;21.80;101720.00;;;;2045831;28;20255;-66
2021/11/19 03:53:31;;;;;;;8.63;7.65;;;;;21.80;101722.00;;;;2048097;28;20217;-66
2021/11/19 03:54:32;;;;;;;8.50;7.60;;;;;21.80;101719.00;;;;2047098;28;20303;-66
2021/11/19 03:55:36;;;;;;;9.50;7.80;;;;;21.70;101703.00;;;;2055288;28;20282;-66
2021/11/19 03:56:37;;;;;;;9.13;8.23;;;;;21.70;101713.00;;;;2047361;28;20306;-66
2021/11/19 03:57:37;;;;;;;7.80;7.10;;;;;21.80;101718.00;;;;2047388;28;20216;-66
2021/11/19 03:58:39;;;;;;;8.30;7.53;;;;;21.80;101722.00;;;;2048027;28;20217;-66
2021/11/19 03:59:39;;;;;;;9.55;8.68;;;;;21.80;101722.00;;;;2054694;28;20721;-66
2021/11/19 04:01:00;;;;;;;8.20;7.40;;;;;21.70;101708.00;;;;2054487;28;20238;-66
2021/11/19 04:02:01;;;;;;;8.85;8.05;;;;;21.70;101714.00;;;;2050797;28;20216;-66
2021/11/19 04:03:01;;;;;;;9.17;8.17;;;;;21.70;101728.00;;;;2057182;28;20230;-66
2021/11/19 04:04:02;;;;;;;9.57;8.77;;;;;21.70;101717.00;;;;2055863;28;20226;-66
2021/11/19 04:05:03;;;;;;;9.13;8.23;;;;;21.70;101715.00;;;;2054976;28;20227;-66
2021/11/19 04:06:03;;;;;;;8.77;7.50;;;;;21.70;101714.00;;;;2055822;28;20491;-65
2021/11/19 04:07:08;;;;;;;8.93;8.13;;;;;21.70;101715.00;;;;2043548;28;20232;-66
2021/11/19 04:08:08;;;;;;;8.63;7.82;;;;;21.70;101708.00;;;;2043535;28;20216;-66
2021/11/19 04:09:08;;;;;;;9.40;8.50;;;;;21.70;101718.00;;;;2053099;28;20220;-66
2021/11/19 04:10:09;;;;;;;8.97;8.13;;;;;21.70;101716.00;;;;2055903;28;20700;-66
2021/11/19 04:11:10;;;;;;;8.50;7.80;;;;;21.70;101709.00;;;;2055816;28;20219;-66
2021/11/19 04:12:11;;;;;;;7.83;7.13;;;;;21.70;101710.00;;;;2055829;28;20738;-66
2021/11/19 04:13:12;;;;;;;8.32;7.53;;;;;21.70;101713.00;;;;2054446;28;20752;-66
2021/11/19 04:14:12;;;;;;;9.27;8.37;;;;;21.70;101722.00;;;;2054830;28;20220;-66
2021/11/19 04:15:22;;;;;;;8.67;7.87;;;;;21.70;101720.00;;;;2055049;28;20230;-66
2021/11/19 04:16:26;;;;;;;8.65;7.85;;;;;21.70;101714.00;;;;2054725;28;20310;-66
2021/11/19 04:17:27;;;;;;;9.10;8.20;;;;;21.70;101725.00;;;;2039100;29;20777;-66
2021/11/19 04:18:27;;;;;;;8.77;7.97;;;;;21.70;101720.00;;;;2039532;29;20213;-66
2021/11/19 04:19:29;;;;;;;8.83;8.00;;;;;21.70;101722.00;;;;2055875;28;20211;-66
2021/11/19 04:20:29;;;;;;;9.13;8.30;;;;;21.70;101724.00;;;;2055771;28;20212;-66
2021/11/19 04:21:29;;;;;;;9.90;8.90;;;;;21.70;101726.00;;;;2055379;28;20599;-66
2021/11/19 04:22:29;;;;;;;8.80;8.00;;;;;21.70;101725.00;;;;2055655;28;20656;-66
2021/11/19 04:23:30;;;;;;;9.17;8.17;;;;;21.70;101720.00;;;;2055474;28;20227;-66
2021/11/19 04:24:33;;;;;;;8.70;8.00;;;;;21.70;101716.00;;;;2054822;28;20292;-66
2021/11/19 04:25:34;;;;;;;9.30;8.40;;;;;21.70;101721.00;;;;2055461;28;20224;-66
2021/11/19 04:26:35;;;;;;;8.53;7.73;;;;;21.70;101721.00;;;;2055494;28;20340;-66
2021/11/19 04:27:35;;;;;;;10.90;9.37;;;;;21.70;101724.00;;;;2055473;28;20212;-66
2021/11/19 04:28:35;;;;;;;8.67;7.90;;;;;21.70;101719.00;;;;2055585;28;20212;-66
2021/11/19 04:29:36;;;;;;;9.07;8.17;;;;;21.60;101721.00;;;;2051368;28;20220;-66
2021/11/19 04:30:38;;;;;;;10.47;9.37;;;;;21.70;101719.00;;;;2052556;28;20318;-65
2021/11/19 04:31:39;;;;;;;9.68;8.30;;;;;21.70;101728.00;;;;2056119;28;20666;-66
2021/11/19 04:32:39;;;;;;;9.97;9.00;;;;;21.60;101729.00;;;;2055727;28;20249;-65
2021/11/19 04:33:40;;;;;;;8.43;7.63;;;;;21.70;101721.00;;;;2055768;28;20666;-65
2021/11/19 04:34:40;;;;;;;8.87;8.07;;;;;21.60;101713.00;;;;2054909;28;20370;-66
2021/11/19 04:35:41;;;;;;;9.07;8.20;;;;;21.70;101719.00;;;;2055580;28;20215;-66
2021/11/19 04:36:41;;;;;;;8.80;8.00;;;;;21.60;101725.00;;;;2043415;28;20216;-66
2021/11/19 04:37:41;;;;;;;9.30;8.40;;;;;21.70;101726.00;;;;2042367;28;20223;-66
2021/11/19 04:38:42;;;;;;;8.67;7.73;;;;;21.70;101720.00;;;;2052165;28;20282;-66
2021/11/19 04:39:42;;;;;;;9.17;8.10;;;;;21.60;101724.00;;;;2055427;28;20231;-66
2021/11/19 04:40:43;;;;;;;8.57;7.77;;;;;21.60;101717.00;;;;2046485;28;20291;-66
2021/11/19 04:41:43;;;;;;;8.53;7.67;;;;;21.60;101724.00;;;;2037019;28;20359;-66
2021/11/19 04:42:43;;;;;;;9.03;8.23;;;;;21.60;101720.00;;;;2054228;28;20243;-66
2021/11/19 04:43:44;;;;;;;8.53;7.67;;;;;21.60;101727.00;;;;2055157;28;20586;-66
2021/11/19 04:44:44;;;;;;;9.63;8.67;;;;;21.60;101716.00;;;;2054690;28;20242;-65
2021/11/19 04:45:45;;;;;;;8.97;8.13;;;;;21.60;101719.00;;;;2045273;28;20219;-66
2021/11/19 04:46:45;;;;;;;8.80;8.00;;;;;21.60;101719.00;;;;2046806;28;20240;-66
2021/11/19 04:47:48;;;;;;;9.00;8.20;;;;;21.60;101726.00;;;;2046932;28;20212;-66
2021/11/19 04:48:48;;;;;;;8.48;7.68;;;;;21.60;101724.00;;;;2054924;28;20227;-66
2021/11/19 04:49:48;;;;;;;9.07;7.70;;;;;21.60;101728.00;;;;2045666;28;20741;-66
2021/11/19 04:50:49;;;;;;;9.33;8.37;;;;;21.60;101733.00;;;;2055081;28;20624;-66
2021/11/19 04:51:50;;;;;;;8.93;7.88;;;;;21.60;101723.00;;;;2055202;28;20228;-66
2021/11/19 04:52:50;;;;;;;8.20;7.50;;;;;21.60;101722.00;;;;2055555;28;20365;-66
2021/11/19 04:53:51;;;;;;;8.93;8.03;;;;;21.60;101724.00;;;;2046054;28;20224;-66
2021/11/19 04:54:51;;;;;;;9.70;8.80;;;;;21.60;101724.00;;;;2045317;28;20587;-66
2021/11/19 04:55:53;;;;;;;9.40;8.50;;;;;21.60;101726.00;;;;2047256;28;20564;-66
2021/11/19 04:56:53;;;;;;;9.00;8.10;;;;;21.60;101723.00;;;;2044699;28;20212;-66
2021/11/19 04:57:54;;;;;;;10.30;9.40;;;;;21.60;101726.00;;;;2047166;28;20235;-66
2021/11/19 04:58:54;;;;;;;8.83;7.90;;;;;21.60;101719.00;;;;2047271;28;20220;-66
2021/11/19 04:59:54;;;;;;;8.50;7.70;;;;;21.60;101712.00;;;;2047416;28;20251;-66
2021/11/19 05:00:58;;;;;;;8.27;7.57;;;;;21.60;101716.00;;;;2049543;28;20303;-66
2021/11/19 05:02:09;;;;;;;9.18;8.38;;;;;21.60;101722.00;;;;2048344;28;20295;-66
2021/11/19 05:03:10;;;;;;;8.80;7.78;;;;;21.60;101719.00;;;;2034964;28;20216;-66
2021/11/19 05:04:11;;;;;;;9.20;8.30;;;;;21.60;101728.00;;;;2047735;28;20244;-66
2021/11/19 05:05:11;;;;;;;9.07;8.27;;;;;21.60;101720.00;;;;2045581;29;20220;-66
2021/11/19 05:06:11;;;;;;;8.10;7.40;;;;;21.60;101711.00;;;;2047042;29;20329;-66
2021/11/19 05:07:12;;;;;;;7.90;7.10;;;;;21.60;101719.00;;;;2046704;29;20275;-66
2021/11/19 05:08:12;;;;;;;8.50;7.60;;;;;21.50;101717.00;;;;2046837;29;20326;-66
2021/11/19 05:09:13;;;;;;;7.67;6.97;;;;;21.50;101720.00;;;;2047490;29;20227;-66
2021/11/19 05:10:13;;;;;;;7.57;6.97;;;;;21.60;101728.00;;;;2047196;29;20950;-66